Time;durP1;ratioP1;P1;durP2;ratioP2;P2;SDS_P1;SDS_P2;PMS_P1;PMS_P2;Temp;Humidity;BMP_temperature;BMP_pressure;BME280_temperature;BME280_humidity;BME280_pressure;Samples;Min_cycle;Max_cycle;Signal;HPM_P1;HPM_P2
2022/12/09 00:02:31;;;;;;;31.20;19.10;;;;;;;-0.45;90.69;99798.58;101444;1316;95753;-58
2022/12/09 00:05:05;;;;;;;30.90;20.70;;;;;;;-0.46;90.90;99799.36;101455;1316;82065;-59
2022/12/09 00:07:40;;;;;;;34.50;20.50;;;;;;;-0.41;90.84;99801.86;101465;1320;81451;-61
2022/12/09 00:10:25;;;;;;;31.20;20.20;;;;;;;-0.47;90.67;99803.35;101486;1316;98882;-58
2022/12/09 00:13:01;;;;;;;32.60;20.50;;;;;;;-0.48;90.91;99797.40;101446;1316;89790;-58
2022/12/09 00:15:35;;;;;;;34.50;21.20;;;;;;;-0.51;90.86;99795.23;101443;1316;94580;-60
2022/12/09 00:18:12;;;;;;;31.70;19.50;;;;;;;-0.46;90.97;99792.59;101446;1316;81058;-61
2022/12/09 00:20:48;;;;;;;33.30;19.40;;;;;;;-0.45;91.12;99794.09;101431;1316;82421;-57
2022/12/09 00:23:22;;;;;;;32.30;20.40;;;;;;;-0.49;90.87;99796.22;101435;1316;97828;-59
2022/12/09 00:26:01;;;;;;;31.60;20.10;;;;;;;-0.51;91.00;99793.43;101450;1320;88440;-57
2022/12/09 00:28:37;;;;;;;32.60;20.90;;;;;;;-0.50;91.09;99790.65;101451;1316;92367;-57
2022/12/09 00:31:14;;;;;;;33.20;20.00;;;;;;;-0.51;91.21;99796.05;101482;1317;79902;-57
2022/12/09 00:33:48;;;;;;;32.50;20.70;;;;;;;-0.57;91.17;99798.86;101330;1319;80550;-59
2022/12/09 00:36:26;;;;;;;34.70;21.40;;;;;;;-0.56;91.30;99797.36;101446;1316;99262;-60
2022/12/09 00:39:02;;;;;;;34.40;21.10;;;;;;;-0.54;91.20;99796.73;101467;1320;88417;-60
2022/12/09 00:41:36;;;;;;;28.30;18.80;;;;;;;-0.56;91.06;99799.85;101481;1317;93267;-57
2022/12/09 00:44:15;;;;;;;33.50;19.10;;;;;;;-0.58;91.12;99800.97;101469;1320;81179;-58
2022/12/09 00:46:51;;;;;;;32.90;20.80;;;;;;;-0.57;91.24;99801.90;101505;1316;81573;-58
2022/12/09 00:49:33;;;;;;;33.50;20.50;;;;;;;-0.56;91.13;99800.60;101411;1316;98749;-58
2022/12/09 00:52:10;;;;;;;35.40;19.90;;;;;;;-0.60;91.19;99802.61;101477;1320;87945;-59
2022/12/09 00:54:44;;;;;;;31.00;19.50;;;;;;;-0.60;91.20;99799.50;101449;1316;93031;-57
2022/12/09 00:57:20;;;;;;;32.50;20.50;;;;;;;-0.61;91.30;99797.04;101430;1316;81090;-58
2022/12/09 00:59:54;;;;;;;31.90;20.30;;;;;;;-0.59;91.26;99796.44;101341;1319;83099;-57
2022/12/09 01:02:30;;;;;;;32.20;20.80;;;;;;;-0.61;91.23;99794.98;101446;1317;98805;-60
2022/12/09 01:05:05;;;;;;;31.00;20.70;;;;;;;-0.62;91.32;99794.52;101434;1320;88364;-58
2022/12/09 01:07:39;;;;;;;30.30;20.20;;;;;;;-0.62;91.30;99797.73;101436;1316;94080;-58
2022/12/09 01:10:16;;;;;;;32.40;18.90;;;;;;;-0.61;91.41;99794.48;101430;1317;80537;-60
2022/12/09 01:12:52;;;;;;;29.90;19.40;;;;;;;-0.66;91.29;99799.17;101470;1316;82822;-59
2022/12/09 01:15:30;;;;;;;33.10;20.00;;;;;;;-0.69;91.49;99798.88;101451;1316;99749;-59
2022/12/09 01:18:04;;;;;;;35.20;21.20;;;;;;;-0.65;91.58;99795.99;101471;1317;88260;-58
2022/12/09 01:20:41;;;;;;;35.30;19.60;;;;;;;-0.66;91.53;99796.45;101443;1316;94885;-58
2022/12/09 01:23:15;;;;;;;31.70;20.20;;;;;;;-0.66;91.73;99795.73;101440;1317;80356;-57
2022/12/09 01:25:52;;;;;;;31.40;19.20;;;;;;;-0.64;91.58;99792.05;101472;1317;81700;-59
2022/12/09 01:28:24;;;;;;;;;;;;;;;-0.61;91.94;99788.77;101488;1316;99786;-60
2022/12/09 01:31:03;;;;;;;32.20;19.80;;;;;;;-0.62;91.94;99786.04;101505;1316;89469;-60
2022/12/09 01:33:38;;;;;;;31.90;19.50;;;;;;;-0.61;91.90;99785.95;101449;1316;95611;-60
2022/12/09 01:36:20;;;;;;;37.50;21.40;;;;;;;-0.65;91.84;99784.70;101472;1318;81059;-59
2022/12/09 01:38:54;;;;;;;32.00;21.30;;;;;;;-0.68;91.72;99783.02;101472;1316;81543;-59
2022/12/09 01:41:30;;;;;;;33.20;20.40;;;;;;;-0.70;91.65;99784.58;101496;1316;98481;-59
2022/12/09 01:44:27;;;;;;;34.00;19.30;;;;;;;-0.69;91.84;99784.16;101457;1316;88784;-60
2022/12/09 01:47:04;;;;;;;32.80;19.70;;;;;;;-0.68;91.81;99782.16;101439;1316;94508;-59
2022/12/09 01:49:46;;;;;;;33.60;20.10;;;;;;;-0.73;91.77;99783.48;101440;1316;81567;-59
2022/12/09 01:52:27;;;;;;;32.50;20.40;;;;;;;-0.76;91.81;99784.63;101458;1317;82763;-56
2022/12/09 01:55:01;;;;;;;32.90;21.10;;;;;;;-0.79;91.76;99788.59;101417;1316;98654;-58
2022/12/09 01:57:36;;;;;;;33.30;20.10;;;;;;;-0.79;91.67;99788.77;101429;1320;86969;-57
2022/12/09 02:00:13;;;;;;;29.80;19.80;;;;;;;-0.81;91.76;99784.14;101426;1316;95703;-58
2022/12/09 02:02:50;;;;;;;31.90;19.60;;;;;;;-0.80;91.75;99785.33;101466;1317;81846;-59
2022/12/09 02:05:25;;;;;;;32.30;19.10;;;;;;;-0.81;91.69;99786.98;101504;1317;81783;-57
2022/12/09 02:08:00;;;;;;;33.30;19.50;;;;;;;-0.84;91.67;99783.92;101490;1317;99592;-58
2022/12/09 02:10:41;;;;;;;33.70;20.70;;;;;;;-0.85;91.56;99779.80;101354;1319;87835;-58
2022/12/09 02:13:28;;;;;;;34.70;20.40;;;;;;;-0.90;91.67;99776.83;101422;1316;96260;-59
2022/12/09 02:16:09;;;;;;;32.40;19.50;;;;;;;-0.96;91.69;99780.14;101469;1320;80461;-58
2022/12/09 02:18:52;;;;;;;29.40;19.50;;;;;;;-0.96;91.57;99775.73;101475;1317;82492;-58
2022/12/09 02:21:37;;;;;;;32.10;20.10;;;;;;;-0.95;91.79;99774.99;101468;1317;99235;-58
2022/12/09 02:24:20;;;;;;;35.40;20.80;;;;;;;-0.94;91.79;99771.40;101433;1320;88645;-58
2022/12/09 02:27:01;;;;;;;33.60;20.30;;;;;;;-0.93;91.83;99769.52;101440;1317;95715;-58
2022/12/09 02:30:11;;;;;;;30.30;20.10;;;;;;;-0.92;91.74;99766.81;101422;1316;79663;-57
2022/12/09 02:33:07;;;;;;;34.80;20.80;;;;;;;-0.94;91.61;99769.28;101461;1316;80820;-58
2022/12/09 02:35:48;;;;;;;36.60;21.30;;;;;;;-0.94;91.67;99766.21;101357;1320;100083;-60
2022/12/09 02:38:26;;;;;;;30.30;19.70;;;;;;;-0.94;91.61;99770.34;101472;1316;87911;-60
2022/12/09 02:41:06;;;;;;;38.00;22.50;;;;;;;-0.98;91.61;99771.65;101469;1316;94438;-59
2022/12/09 02:43:45;;;;;;;35.90;20.30;;;;;;;-1.01;91.62;99770.70;101419;1317;81129;-59
2022/12/09 02:46:24;;;;;;;35.20;20.10;;;;;;;-1.02;91.65;99773.34;101439;1317;82743;-60
2022/12/09 02:49:00;;;;;;;34.30;20.00;;;;;;;-0.97;91.87;99776.18;101463;1316;99152;-60
2022/12/09 02:51:41;;;;;;;33.90;20.90;;;;;;;-0.92;91.82;99771.36;101511;1316;87877;-57
2022/12/09 02:54:19;;;;;;;34.70;20.80;;;;;;;-0.87;92.02;99772.67;101455;1316;94167;-56
2022/12/09 02:57:02;;;;;;;34.70;20.50;;;;;;;-0.80;92.02;99776.98;101515;1320;81104;-58
2022/12/09 02:59:38;;;;;;;37.50;21.80;;;;;;;-0.66;92.22;99778.80;101454;1317;82210;-58
2022/12/09 03:02:20;;;;;;;;;;;;;;;-0.61;92.13;99780.26;101463;1316;97686;-60
2022/12/09 03:05:13;;;;;;;35.90;21.00;;;;;;;-0.57;92.19;99785.80;101445;1320;88547;-59
2022/12/09 03:08:01;;;;;;;37.20;20.80;;;;;;;-0.52;92.24;99776.21;101423;1320;93368;-58
2022/12/09 03:10:44;;;;;;;33.10;21.00;;;;;;;-0.46;92.21;99772.96;101331;1321;80292;-57
2022/12/09 03:13:33;;;;;;;33.60;20.30;;;;;;;-0.40;92.18;99771.37;101447;1320;82117;-57
2022/12/09 03:16:17;;;;;;;32.30;20.50;;;;;;;-0.36;92.26;99769.06;101500;1316;99537;-56
2022/12/09 03:18:59;;;;;;;25.90;15.10;;;;;;;-0.30;92.17;99769.11;101383;1322;87362;-56
2022/12/09 03:21:36;;;;;;;36.50;21.80;;;;;;;-0.25;92.33;99765.27;101475;1316;94209;-59
2022/12/09 03:24:14;;;;;;;31.80;20.10;;;;;;;-0.19;92.27;99767.01;101363;1318;81750;-58
2022/12/09 03:26:51;;;;;;;36.40;21.20;;;;;;;-0.14;92.30;99764.45;101456;1316;82953;-57
2022/12/09 03:29:30;;;;;;;34.00;20.60;;;;;;;-0.07;92.25;99763.23;101490;1316;99501;-57
2022/12/09 03:32:07;;;;;;;34.10;20.20;;;;;;;-0.03;92.23;99760.75;101489;1316;87010;-59
2022/12/09 03:34:46;;;;;;;31.60;20.70;;;;;;;0.02;92.08;99758.04;101513;1316;93707;-58
2022/12/09 03:37:22;;;;;;;34.60;20.60;;;;;;;0.06;92.20;99757.88;101458;1317;81435;-57
2022/12/09 03:39:58;;;;;;;34.10;20.80;;;;;;;0.09;92.05;99757.80;101484;1316;81509;-58
2022/12/09 03:42:44;;;;;;;33.50;20.30;;;;;;;0.11;92.04;99758.11;101446;1320;99478;-58
2022/12/09 03:45:19;;;;;;;31.50;21.10;;;;;;;0.14;91.98;99758.33;101445;1316;88947;-58
2022/12/09 03:47:56;;;;;;;32.30;21.10;;;;;;;0.12;92.03;99760.64;101433;1316;95776;-57
2022/12/09 03:50:36;;;;;;;33.60;20.10;;;;;;;0.11;91.99;99756.31;101467;1316;79414;-59
2022/12/09 03:53:18;;;;;;;31.40;20.00;;;;;;;0.06;91.83;99753.27;101454;1317;83379;-57
2022/12/09 03:56:02;;;;;;;31.70;20.20;;;;;;;0.01;91.68;99756.36;101457;1316;99646;-58
2022/12/09 03:58:41;;;;;;;34.50;20.50;;;;;;;-0.12;91.63;99759.29;101419;1320;88066;-59
2022/12/09 04:01:19;;;;;;;36.60;21.20;;;;;;;-0.21;91.58;99759.20;101450;1317;94283;-61
2022/12/09 04:03:57;;;;;;;35.60;21.90;;;;;;;-0.29;91.58;99756.60;101511;1317;81193;-58
2022/12/09 04:06:31;;;;;;;34.40;21.40;;;;;;;-0.32;91.45;99760.02;101544;1318;81699;-52
2022/12/09 04:09:07;;;;;;;34.70;20.50;;;;;;;-0.32;91.47;99765.05;101475;1316;99679;-59
2022/12/09 04:11:40;;;;;;;34.80;21.30;;;;;;;-0.32;91.61;99768.02;101477;1316;89352;-61
2022/12/09 04:14:17;;;;;;;34.40;21.70;;;;;;;-0.31;91.62;99767.40;101472;1316;95582;-60
2022/12/09 04:16:50;;;;;;;;;;;;;;;-0.30;91.61;99758.64;101528;1316;78896;-57
2022/12/09 04:19:24;;;;;;;37.10;21.70;;;;;;;-0.31;91.66;99759.22;101494;1317;82724;-57
2022/12/09 04:21:58;;;;;;;36.90;21.20;;;;;;;-0.28;91.71;99757.02;101463;1316;98178;-59
2022/12/09 04:24:37;;;;;;;33.70;21.10;;;;;;;-0.26;91.75;99758.99;101462;1316;89262;-59
2022/12/09 04:27:15;;;;;;;33.10;21.70;;;;;;;-0.26;91.70;99756.15;101418;1316;93913;-55
2022/12/09 04:29:51;;;;;;;32.90;20.60;;;;;;;-0.27;91.69;99757.32;101430;1317;79072;-57
2022/12/09 04:32:30;;;;;;;37.50;22.90;;;;;;;-0.28;91.72;99760.75;101478;1320;83234;-60
2022/12/09 04:35:07;;;;;;;31.60;20.50;;;;;;;-0.26;91.69;99762.16;101434;1317;100530;-60
2022/12/09 04:37:41;;;;;;;30.10;19.40;;;;;;;-0.28;91.63;99760.02;101438;1316;88593;-59
2022/12/09 04:40:18;;;;;;;36.70;23.10;;;;;;;-0.29;91.63;99757.52;101443;1316;95570;-58
2022/12/09 04:42:52;;;;;;;34.30;21.00;;;;;;;-0.33;91.64;99758.56;101467;1316;81435;-57
2022/12/09 04:45:27;;;;;;;32.70;20.60;;;;;;;-0.32;91.71;99753.70;101445;1320;83290;-58
2022/12/09 04:48:01;;;;;;;36.20;21.00;;;;;;;-0.34;91.55;99756.39;101468;1316;99245;-58
2022/12/09 04:50:39;;;;;;;36.10;20.70;;;;;;;-0.36;91.64;99757.80;101458;1320;89400;-58
2022/12/09 04:53:15;;;;;;;36.40;21.20;;;;;;;-0.39;91.60;99759.25;101456;1316;93945;-58
2022/12/09 04:55:47;;;;;;;;;;;;;;;-0.40;91.53;99752.83;101488;1317;81746;-59
2022/12/09 04:58:25;;;;;;;35.60;21.60;;;;;;;-0.43;91.62;99752.17;101491;1320;83385;-61
2022/12/09 05:01:10;;;;;;;34.90;21.50;;;;;;;-0.41;91.53;99752.38;101496;1320;98737;-59
2022/12/09 05:03:49;;;;;;;37.30;20.90;;;;;;;-0.46;91.63;99752.80;101511;1320;88689;-60
2022/12/09 05:06:23;;;;;;;35.70;22.20;;;;;;;-0.47;91.54;99756.60;101435;1316;95512;-57
2022/12/09 05:09:01;;;;;;;33.20;22.10;;;;;;;-0.45;91.61;99759.84;101439;1316;80431;-57
2022/12/09 05:11:33;;;;;;;;;;;;;;;-0.42;91.63;99760.08;101497;1316;79843;-56
2022/12/09 05:14:08;;;;;;;36.30;21.20;;;;;;;-0.40;91.60;99755.33;101439;1317;99301;-57
2022/12/09 05:16:42;;;;;;;35.10;21.70;;;;;;;-0.47;91.67;99755.89;101503;1316;89156;-57
2022/12/09 05:19:18;;;;;;;37.10;22.00;;;;;;;-0.44;91.82;99754.91;101481;1316;93977;-56
2022/12/09 05:21:53;;;;;;;35.70;22.00;;;;;;;-0.41;91.88;99760.55;101456;1316;79128;-60
2022/12/09 05:24:27;;;;;;;35.10;22.20;;;;;;;-0.36;91.81;99761.30;101441;1316;83114;-61
2022/12/09 05:27:04;;;;;;;37.50;22.30;;;;;;;-0.31;91.80;99762.46;101450;1316;99886;-60
2022/12/09 05:29:41;;;;;;;33.00;21.90;;;;;;;-0.27;91.93;99759.05;101473;1316;86893;-60
2022/12/09 05:32:15;;;;;;;41.90;24.20;;;;;;;-0.29;91.80;99762.40;101446;1316;92825;-59
2022/12/09 05:34:49;;;;;;;36.40;22.80;;;;;;;-0.28;91.82;99762.66;101287;1323;83601;-60
2022/12/09 05:37:29;;;;;;;34.20;21.30;;;;;;;-0.25;91.91;99757.27;101501;1317;82318;-59
2022/12/09 05:40:07;;;;;;;34.60;21.30;;;;;;;-0.24;91.86;99759.31;101510;1316;98248;-58
2022/12/09 05:42:41;;;;;;;36.60;21.90;;;;;;;-0.25;91.91;99762.94;101503;1317;87514;-58
2022/12/09 05:45:17;;;;;;;35.90;22.00;;;;;;;-0.23;92.00;99765.40;101503;1316;95638;-56
2022/12/09 05:47:51;;;;;;;36.50;22.60;;;;;;;-0.17;91.93;99764.17;101478;1316;79818;-56
2022/12/09 05:50:28;;;;;;;35.20;21.70;;;;;;;-0.17;92.04;99764.70;101441;1316;83402;-58
2022/12/09 05:53:10;;;;;;;39.40;23.60;;;;;;;-0.13;91.90;99766.46;101462;1316;99546;-58
2022/12/09 05:55:47;;;;;;;33.60;21.40;;;;;;;-0.16;91.87;99767.43;101494;1316;88588;-58
2022/12/09 05:58:20;;;;;;;;;;;;;;;-0.20;91.83;99769.56;101439;1316;94957;-58
2022/12/09 06:01:02;;;;;;;35.40;21.60;;;;;;;-0.20;91.75;99771.50;101485;1316;81032;-57
2022/12/09 06:03:40;;;;;;;38.50;23.60;;;;;;;-0.23;91.79;99774.43;101458;1316;84894;-56
2022/12/09 06:06:19;;;;;;;35.50;22.00;;;;;;;-0.23;91.84;99774.09;101464;1316;99063;-61
2022/12/09 06:08:59;;;;;;;36.70;23.10;;;;;;;-0.19;91.78;99773.23;101480;1316;86837;-61
2022/12/09 06:11:36;;;;;;;37.70;22.90;;;;;;;-0.18;91.78;99778.05;101475;1316;92599;-60
2022/12/09 06:14:11;;;;;;;38.10;23.10;;;;;;;-0.18;91.80;99781.45;101434;1316;80060;-61
2022/12/09 06:16:46;;;;;;;36.90;23.00;;;;;;;-0.18;91.78;99778.77;101462;1320;82713;-61
2022/12/09 06:19:20;;;;;;;36.70;23.30;;;;;;;-0.17;91.65;99779.24;101485;1316;99675;-61
2022/12/09 06:21:57;;;;;;;39.20;23.80;;;;;;;-0.15;91.64;99779.73;101472;1320;88409;-59
2022/12/09 06:24:34;;;;;;;38.10;23.80;;;;;;;-0.16;91.70;99776.09;101505;1316;94253;-58
2022/12/09 06:27:10;;;;;;;38.50;23.20;;;;;;;-0.12;91.72;99777.33;101445;1316;79905;-57
2022/12/09 06:29:47;;;;;;;37.40;23.40;;;;;;;-0.08;91.72;99779.99;101501;1317;82376;-58
2022/12/09 06:32:25;;;;;;;37.10;22.70;;;;;;;-0.07;91.69;99777.98;101434;1320;98892;-62
2022/12/09 06:34:59;;;;;;;38.30;21.70;;;;;;;-0.08;91.62;99780.16;101498;1317;88592;-57
2022/12/09 06:37:36;;;;;;;37.60;22.60;;;;;;;-0.11;91.68;99780.77;101455;1316;94859;-59
2022/12/09 06:40:12;;;;;;;36.40;22.90;;;;;;;-0.08;91.45;99783.33;101458;1320;81040;-58
2022/12/09 06:42:50;;;;;;;37.80;22.60;;;;;;;-0.11;91.72;99784.45;101442;1316;82409;-59
2022/12/09 06:45:28;;;;;;;36.80;22.00;;;;;;;-0.06;91.74;99784.05;101446;1317;97790;-59
2022/12/09 06:48:04;;;;;;;39.70;23.20;;;;;;;-0.01;91.67;99785.20;101442;1316;89160;-57
2022/12/09 06:50:40;;;;;;;38.70;23.10;;;;;;;0.04;91.65;99786.52;101475;1317;93916;-59
2022/12/09 06:53:17;;;;;;;37.90;23.60;;;;;;;0.10;91.65;99784.55;99712;1316;2450452;-57
2022/12/09 06:55:51;;;;;;;36.00;22.60;;;;;;;0.15;91.54;99781.42;101483;1316;83228;-59
2022/12/09 06:58:27;;;;;;;36.00;23.70;;;;;;;0.21;91.55;99781.06;101461;1316;99385;-58
2022/12/09 07:01:07;;;;;;;36.30;22.40;;;;;;;0.32;91.50;99778.80;101508;1316;87326;-58
2022/12/09 07:03:42;;;;;;;39.20;23.00;;;;;;;0.34;91.44;99777.89;101509;1316;93143;-59
2022/12/09 07:06:25;;;;;;;33.40;21.60;;;;;;;0.38;91.58;99778.21;101490;1316;80673;-59
2022/12/09 07:09:02;;;;;;;33.50;22.40;;;;;;;0.46;91.68;99780.87;101453;1316;82230;-59
2022/12/09 07:11:37;;;;;;;38.00;23.60;;;;;;;0.56;91.59;99782.58;101461;1320;98895;-60
2022/12/09 07:14:14;;;;;;;37.60;23.10;;;;;;;0.64;91.63;99782.04;101460;1317;89761;-62
2022/12/09 07:16:48;;;;;;;34.00;22.20;;;;;;;0.70;91.68;99777.91;101480;1317;95004;-61
2022/12/09 07:19:26;;;;;;;40.30;24.20;;;;;;;0.76;91.74;99777.90;101444;1320;78610;-61
2022/12/09 07:22:03;;;;;;;39.10;24.40;;;;;;;0.79;91.61;99776.09;101450;1316;82843;-59
2022/12/09 07:24:38;;;;;;;41.10;22.90;;;;;;;0.91;91.70;99774.00;101425;1316;99339;-59
2022/12/09 07:27:16;;;;;;;38.40;24.40;;;;;;;1.02;91.57;99768.55;101487;1316;89368;-61
2022/12/09 07:29:51;;;;;;;37.00;23.30;;;;;;;1.15;91.57;99762.48;101498;1316;94675;-59
2022/12/09 07:32:26;;;;;;;36.80;23.10;;;;;;;1.33;91.54;99765.27;101485;1317;81506;-61
2022/12/09 07:35:02;;;;;;;38.90;23.20;;;;;;;1.53;91.89;99756.15;101387;1320;82679;-58
2022/12/09 07:37:37;;;;;;;35.10;23.10;;;;;;;2.02;91.80;99755.94;101492;1316;99304;-60
2022/12/09 07:43:49;;;;;;;35.30;21.80;;;;;;;2.66;90.84;99758.34;101418;1292;93659;-58
2022/12/09 07:46:26;;;;;;;38.30;23.80;;;;;;;2.79;90.72;99761.87;101903;1313;78140;-57
2022/12/09 07:49:04;;;;;;;35.60;24.00;;;;;;;2.94;90.32;99767.38;101924;1317;80578;-57
2022/12/09 07:51:39;;;;;;;37.20;22.80;;;;;;;2.98;90.28;99769.08;101737;1317;98015;-61
2022/12/09 07:54:19;;;;;;;37.50;25.40;;;;;;;3.00;90.03;99770.69;101901;1316;88767;-60
2022/12/09 07:56:59;;;;;;;36.70;24.50;;;;;;;3.07;89.68;99766.42;101892;1316;95568;-56
2022/12/09 07:59:36;;;;;;;36.90;25.70;;;;;;;2.96;89.11;99767.85;101885;1313;79403;-57
2022/12/09 08:02:14;;;;;;;38.10;26.20;;;;;;;2.75;89.11;99768.27;101909;1313;82597;-59
2022/12/09 08:04:58;;;;;;;36.10;24.40;;;;;;;2.59;89.29;99772.94;101881;1313;98946;-58
2022/12/09 08:07:33;;;;;;;36.30;23.30;;;;;;;2.52;88.96;99775.85;101886;1313;88853;-56
2022/12/09 08:10:09;;;;;;;38.20;24.10;;;;;;;2.38;89.03;99775.05;101888;1313;95204;-53
2022/12/09 08:12:45;;;;;;;37.00;23.60;;;;;;;2.36;88.98;99777.09;101743;1318;79006;-61
2022/12/09 08:15:22;;;;;;;35.60;24.40;;;;;;;2.29;89.02;99773.44;101777;1317;82319;-61
2022/12/09 08:18:02;;;;;;;38.40;25.20;;;;;;;2.28;89.17;99773.13;101884;1313;99686;-60
2022/12/09 08:20:39;;;;;;;38.50;24.50;;;;;;;2.29;89.39;99775.14;101900;1313;88251;-58
2022/12/09 08:23:20;;;;;;;38.80;24.40;;;;;;;2.26;89.41;99777.56;101859;1313;95568;-55
2022/12/09 08:25:57;;;;;;;40.10;25.20;;;;;;;2.22;89.39;99781.66;101886;1313;80501;-57
2022/12/09 08:28:32;;;;;;;43.90;25.40;;;;;;;2.18;89.29;99782.08;101911;1316;81808;-57
2022/12/09 08:31:18;;;;;;;38.90;25.30;;;;;;;2.24;89.35;99784.48;101893;1311;98900;-62
2022/12/09 08:33:53;;;;;;;43.20;27.00;;;;;;;2.28;89.52;99783.73;101911;1317;88325;-59
2022/12/09 08:36:35;;;;;;;38.90;25.10;;;;;;;2.27;89.34;99783.24;101876;1313;94348;-57
2022/12/09 08:39:30;;;;;;;42.00;26.90;;;;;;;2.23;89.49;99778.77;101884;1317;78881;-57
2022/12/09 08:42:08;;;;;;;40.60;25.00;;;;;;;2.20;89.58;99781.66;101907;1313;82230;-57
2022/12/09 08:44:42;;;;;;;39.30;25.20;;;;;;;2.24;89.74;99784.45;101908;1313;99443;-57
2022/12/09 08:47:21;;;;;;;41.80;26.50;;;;;;;2.28;89.68;99782.12;101769;1317;87570;-59
2022/12/09 08:50:00;;;;;;;39.90;25.40;;;;;;;2.26;89.81;99784.44;101896;1313;94286;-57
2022/12/09 08:52:41;;;;;;;37.90;25.40;;;;;;;2.32;89.81;99792.76;101887;1316;81879;-57
2022/12/09 08:55:17;;;;;;;38.20;24.30;;;;;;;2.35;89.50;99797.05;101922;1316;83143;-57
2022/12/09 08:57:52;;;;;;;43.40;26.30;;;;;;;2.39;89.56;99792.18;101892;1313;99943;-61
2022/12/09 09:00:26;;;;;;;45.30;27.00;;;;;;;2.46;89.57;99792.81;101881;1316;89281;-59
2022/12/09 09:03:04;;;;;;;42.60;27.20;;;;;;;2.54;89.53;99789.83;101910;1317;95808;-61
2022/12/09 09:05:38;;;;;;;39.00;26.40;;;;;;;2.65;89.31;99791.22;101911;1317;77473;-58
2022/12/09 09:08:14;;;;;;;40.60;26.50;;;;;;;2.67;89.29;99789.35;101937;1313;81849;-58
2022/12/09 09:10:55;;;;;;;45.80;28.20;;;;;;;2.67;89.07;99785.66;101955;1313;98931;-57
2022/12/09 09:13:29;;;;;;;42.20;27.20;;;;;;;2.63;88.95;99787.64;101952;1317;88094;-58
2022/12/09 09:16:09;;;;;;;46.60;29.60;;;;;;;2.61;88.78;99779.82;101896;1316;94887;-61
2022/12/09 09:18:46;;;;;;;41.40;27.20;;;;;;;2.56;88.77;99779.11;101898;1316;79528;-61
2022/12/09 09:21:27;;;;;;;43.00;27.10;;;;;;;2.57;88.87;99779.35;101889;1316;82880;-60
2022/12/09 09:24:02;;;;;;;44.20;27.80;;;;;;;2.59;88.68;99779.55;101892;1316;98596;-60
2022/12/09 09:26:44;;;;;;;41.70;26.70;;;;;;;2.59;88.82;99784.64;101871;1313;88915;-57
2022/12/09 09:29:30;;;;;;;40.20;26.80;;;;;;;2.62;88.66;99781.73;101907;1313;94965;-58
2022/12/09 09:32:05;;;;;;;41.70;26.20;;;;;;;2.59;88.52;99778.64;101924;1317;78918;-56
2022/12/09 09:34:40;;;;;;;41.70;26.70;;;;;;;2.58;88.57;99780.16;101936;1316;81587;-55
2022/12/09 09:37:13;;;;;;;;;;;;;;;2.55;88.73;99783.53;101954;1316;99833;-56
2022/12/09 09:39:48;;;;;;;43.40;28.00;;;;;;;2.60;88.93;99779.25;101933;1313;88804;-58
2022/12/09 09:42:45;;;;;;;41.60;27.10;;;;;;;2.72;88.62;99778.61;101832;1317;95803;-62
2022/12/09 09:45:26;;;;;;;43.50;28.80;;;;;;;2.79;88.63;99779.41;101964;1313;79454;-59
2022/12/09 09:48:04;;;;;;;45.80;28.60;;;;;;;2.88;88.24;99780.41;101981;1313;83158;-59
2022/12/09 09:50:51;;;;;;;47.30;30.20;;;;;;;2.86;88.46;99778.76;102030;1313;99750;-58
2022/12/09 09:53:31;;;;;;;45.10;29.90;;;;;;;2.90;88.18;99780.73;101975;1313;88302;-57
2022/12/09 09:56:17;;;;;;;45.10;29.30;;;;;;;2.90;88.18;99778.61;101936;1316;94456;-61
2022/12/09 09:59:17;;;;;;;44.90;30.20;;;;;;;2.89;88.21;99779.28;101931;1313;79204;-61
2022/12/09 10:02:01;;;;;;;45.10;29.70;;;;;;;2.88;88.06;99778.70;101935;1316;82529;-57
2022/12/09 10:04:54;;;;;;;46.00;30.50;;;;;;;2.94;88.01;99777.33;101851;1316;99399;-58
2022/12/09 10:07:38;;;;;;;44.60;28.70;;;;;;;3.05;87.80;99774.55;101853;1316;87212;-57
2022/12/09 10:10:42;;;;;;;43.70;28.80;;;;;;;3.10;87.61;99771.63;101693;1319;96807;-57
2022/12/09 10:13:44;;;;;;;47.30;28.10;;;;;;;3.18;87.51;99771.77;101912;1317;82159;-60
2022/12/09 10:16:32;;;;;;;45.10;29.40;;;;;;;3.25;87.50;99774.88;101938;1313;83016;-60
2022/12/09 10:19:17;;;;;;;45.20;29.80;;;;;;;3.25;87.39;99774.36;101908;1313;98725;-60
2022/12/09 10:21:57;;;;;;;45.70;29.00;;;;;;;3.20;87.19;99777.19;101911;1313;89489;-59
2022/12/09 10:24:46;;;;;;;42.70;29.10;;;;;;;3.19;87.35;99780.30;101901;1313;93819;-59
2022/12/09 10:27:38;;;;;;;45.30;29.70;;;;;;;3.21;87.32;99783.46;101969;1315;79699;-61
2022/12/09 10:30:23;;;;;;;46.70;31.60;;;;;;;3.22;87.21;99784.24;101961;1313;82165;-61
2022/12/09 10:33:05;;;;;;;46.70;29.70;;;;;;;3.22;87.43;99783.55;101943;1313;99482;-58
2022/12/09 10:35:45;;;;;;;47.60;30.60;;;;;;;3.29;87.22;99780.90;101928;1313;89201;-58
2022/12/09 10:38:27;;;;;;;47.10;30.30;;;;;;;3.34;87.28;99780.91;101886;1313;95328;-58
2022/12/09 10:41:13;;;;;;;50.10;31.20;;;;;;;3.40;87.08;99782.39;101925;1316;81270;-59
2022/12/09 10:43:50;;;;;;;47.40;30.30;;;;;;;3.45;87.22;99781.66;101929;1316;83044;-59
2022/12/09 10:46:27;;;;;;;43.70;29.70;;;;;;;3.55;87.27;99774.78;101894;1316;99025;-62
2022/12/09 10:49:15;;;;;;;46.00;30.00;;;;;;;3.66;86.48;99774.99;101918;1313;87493;-62
2022/12/09 10:51:55;;;;;;;45.50;31.30;;;;;;;3.71;86.53;99774.71;101908;1317;94266;-61
2022/12/09 10:54:39;;;;;;;45.80;32.10;;;;;;;3.67;86.68;99778.44;101734;1316;77698;-61
2022/12/09 10:57:30;;;;;;;47.60;32.10;;;;;;;3.73;87.07;99778.72;101929;1316;80164;-58
2022/12/09 11:00:23;;;;;;;51.70;33.50;;;;;;;3.83;87.07;99772.83;101944;1313;98900;-59
2022/12/09 11:03:02;;;;;;;50.20;33.40;;;;;;;3.92;86.81;99771.14;101962;1317;86996;-61
2022/12/09 11:05:40;;;;;;;45.40;31.50;;;;;;;3.93;86.74;99771.91;101935;1317;94585;-61
2022/12/09 11:08:23;;;;;;;45.10;30.50;;;;;;;3.92;86.82;99772.78;101926;1313;79987;-62
2022/12/09 11:11:01;;;;;;;46.80;30.20;;;;;;;3.97;86.39;99770.09;101941;1316;82889;-59
2022/12/09 11:13:43;;;;;;;46.90;29.20;;;;;;;3.98;86.35;99767.27;101900;1316;99560;-59
2022/12/09 11:16:27;;;;;;;43.30;29.80;;;;;;;4.03;86.46;99770.17;101938;1313;88920;-61
2022/12/09 11:19:02;;;;;;;45.60;31.80;;;;;;;3.98;86.23;99765.02;101894;1313;94702;-60
2022/12/09 11:21:41;;;;;;;61.60;34.10;;;;;;;3.98;86.50;99765.48;101855;1313;78917;-60
2022/12/09 11:24:29;;;;;;;54.50;35.90;;;;;;;4.02;86.40;99762.83;101901;1313;81319;-60
2022/12/09 11:27:26;;;;;;;47.00;32.70;;;;;;;4.05;86.25;99757.48;101875;1313;99985;-58
2022/12/09 11:30:16;;;;;;;45.20;30.20;;;;;;;4.04;86.03;99760.56;101872;1313;88000;-54
2022/12/09 11:33:18;;;;;;;49.10;32.70;;;;;;;4.01;85.91;99767.20;101879;1316;95876;-59
2022/12/09 11:36:02;;;;;;;47.60;32.30;;;;;;;4.04;85.54;99762.74;101932;1317;76917;-59
2022/12/09 11:39:12;;;;;;;48.30;33.00;;;;;;;4.04;85.72;99761.13;101918;1313;80300;-58
2022/12/09 11:49:51;;;;;;;41.60;28.30;;;;;;;3.99;84.89;99759.05;102733;1290;92799;-62
2022/12/09 11:53:20;;;;;;;43.20;29.30;;;;;;;3.99;85.12;99758.84;103498;1317;80942;-58
2022/12/09 11:56:02;;;;;;;44.30;30.10;;;;;;;3.98;85.06;99758.88;103255;1314;82671;-57
2022/12/09 11:58:43;;;;;;;42.30;28.50;;;;;;;4.07;85.09;99752.59;103335;1288;99526;-61
2022/12/09 12:01:24;;;;;;;48.10;31.00;;;;;;;4.06;85.06;99745.90;103315;1317;89682;-62
2022/12/09 12:04:05;;;;;;;44.30;30.00;;;;;;;4.13;84.99;99743.05;103336;1317;95112;-58
2022/12/09 12:06:48;;;;;;;44.90;30.20;;;;;;;4.20;84.90;99741.79;103351;1317;77909;-57
2022/12/09 12:09:28;;;;;;;46.60;31.90;;;;;;;4.13;84.93;99739.37;103365;1313;83085;-57
2022/12/09 12:12:13;;;;;;;45.70;32.00;;;;;;;4.11;84.69;99745.45;103360;1317;99913;-60
2022/12/09 12:14:48;;;;;;;47.50;31.20;;;;;;;4.01;84.46;99741.82;103209;1316;88476;-61
2022/12/09 12:17:25;;;;;;;;;;;;;;;3.89;84.42;99739.41;103574;1317;94282;-59
2022/12/09 12:19:59;;;;;;;45.20;28.70;;;;;;;3.75;84.37;99735.46;103363;1317;79836;-58
2022/12/09 12:23:03;;;;;;;45.10;29.20;;;;;;;3.61;84.31;99738.29;103392;1317;81900;-58